Hauptseite
METAR-TAF:

METAR-TAF

Flughäfen :

Osterinsel, Chile

Breite: 27-09S, Länge: 109-25W, Höhe: 51 m

Beobachtung

Neuester Wetterbericht von vor 46 Minuten, um 15:00 UTC
Wind 12 kt aus Ost/Südost
Temperatur 20°C
Luftfeuchtigkeit 73%
Luftdruck 1023 hPa
Sichtweite 10 km oder mehr
Aufgelockert bewölkt in der Höhe von 2500 ft
Aufgelockert bewölkt in der Höhe von 5400 ft

METAR: SCIP 211500Z 12012KT 9999 SCT025 SCT054 20/15 Q1023 NOSIG

Zeit: 09:46 (15:46 UTC)

Prognose

Neuester Wetterbericht von vor 5 Stunden und 9 Minuten, um 10:37 UTC
Gültige Prognose vom 21 um 12 UTC bis 22 um 12 UTC
Wind 18 kt aus Ost/Südost
Sichtweite 10 km oder mehr
Aufgelockert bewölkt in der Höhe von 3000 ft

TAF: SCIP 211037Z 2112/2212 12018KT 9999 SCT030 TN17/2210Z TX25/2120Z

Wetterbeobachtungen und Prognosen von mehr als 4000 Flughäfen (METAR und TAF Bericht).

Die verfügbaren Stationen werden durch gelbe und rote Markierungen auf der Karte dargestellt.

Führen Sie die Maus auf sie, um den Namen der Station zu sehen.

Darauf klicken, um die Beobachtung von Wetterbeobachtungen und Prognosen zu sehen.

Um die Karte zu ändern : klicken Sie auf den grünen Tasten mit einem schwarzen Kreuz Zum Vergrößern, auf den grünen Button mit einem Gedankenstrich zu verkleinern, oder auf die grünen Pfeile für benachbarte Karten.


METAR-TAF: